Aviation Digital Data Service (ADDS)

Output produced by METARs form (0842 UTC 24 March 2019)
found at http://www.aviationweather.gov/metar/data/
 
Forecast for: FABL (BLOEMFONTEIN/HER, ZA)
Text: TAF FABL 240400Z 2406/2506 03012KT 9999 SCT045 TX25/2413Z TN15/2504Z
Forecast period: 0600 to 1800 UTC 24 March 2019
Forecast type: FROM: standard forecast or significant change
Winds: from the NNE (30 degrees) at 14 MPH (12 knots; 6.2 m/s)
Visibility: 6 or more miles 10+ km)
Ceiling: at least 12,000 feet AGL
Clouds: scattered clouds at 4500 feet AGL
Weather: no significant weather forecast for this period
Text: TEMPO 2409/2417 5000 TSRA SCT055CB
Forecast period: 0900 to 1700 UTC 24 March 2019
Forecast type: TEMPORARY: The following changes expected for less than half the time period
Visibility: 3 miles (5 km)
Ceiling: at least 12,000 feet AGL
Clouds: scattered clouds at 5500 feet AGL
Weather: TSRA  (rain associated with thunderstorm(s))
Text: FM241800 VRB03KT CAVOK
Forecast period: 1800 UTC 24 March 2019 to 0600 UTC 25 March 2019
Forecast type: FROM: standard forecast or significant change
Winds: variable direction winds at 3 MPH (3 knots; 1.5 m/s)
Visibility: 6 or more miles 10+ km)
Ceiling: unknown
Clouds: missing
Weather: NSW  (no significant weather)